createdAt,value
2019-05-11T00:02:14.589Z,97043.00
2019-05-11T00:04:45.976Z,97042.00
2019-05-11T00:07:17.384Z,97043.00
2019-05-11T00:09:57.647Z,97045.00
2019-05-11T00:12:22.007Z,97042.00
2019-05-11T00:14:53.482Z,97033.00
2019-05-11T00:17:24.935Z,97039.00
2019-05-11T00:19:56.319Z,97042.00
2019-05-11T00:22:27.791Z,97041.00
2019-05-11T00:24:59.429Z,97027.00
2019-05-11T00:27:30.876Z,97030.00
2019-05-11T00:30:02.293Z,97033.00
2019-05-11T00:32:33.922Z,97038.00
2019-05-11T00:35:05.503Z,97030.00
2019-05-11T00:37:36.923Z,97029.00
2019-05-11T00:40:14.592Z,97017.00
2019-05-11T00:42:42.499Z,97026.00
2019-05-11T00:45:14.070Z,97019.00
2019-05-11T00:47:46.666Z,97015.00
2019-05-11T00:50:18.057Z,97007.00
2019-05-11T00:52:50.420Z,97002.00
2019-05-11T00:55:21.862Z,97000.00
2019-05-11T00:57:53.295Z,97013.00
2019-05-11T01:00:24.705Z,96999.00
2019-05-11T01:02:56.220Z,96990.00
2019-05-11T01:05:27.626Z,97003.00
2019-05-11T01:07:59.938Z,96996.00
2019-05-11T01:10:41.672Z,96989.00
2019-05-11T01:13:06.216Z,96991.00
2019-05-11T01:15:37.830Z,96986.00
2019-05-11T01:18:09.238Z,97003.00
2019-05-11T01:20:40.715Z,96988.00
2019-05-11T01:23:12.112Z,96983.00
2019-05-11T01:25:44.511Z,96982.00
2019-05-11T01:28:15.986Z,96977.00
2019-05-11T01:30:47.423Z,96980.00
2019-05-11T01:33:18.916Z,96980.00
2019-05-11T01:35:51.180Z,96978.00
2019-05-11T01:38:22.954Z,96988.00
2019-05-11T01:40:58.912Z,96979.00
2019-05-11T01:43:27.619Z,96976.00
2019-05-11T01:45:58.997Z,96974.00
2019-05-11T01:48:30.412Z,96966.00
2019-05-11T01:51:01.816Z,96963.00
2019-05-11T01:53:37.061Z,96961.00
2019-05-11T01:56:08.490Z,96936.00
2019-05-11T01:58:41.364Z,96931.00
2019-05-11T02:01:12.754Z,96907.00
2019-05-11T02:03:44.174Z,96911.00
2019-05-11T02:06:15.644Z,96911.00
2019-05-11T02:08:47.023Z,96916.00
2019-05-11T02:11:19.727Z,96908.00
2019-05-11T03:20:16.009Z,96829.00
2019-05-11T03:22:49.378Z,96804.00
2019-05-11T03:25:21.905Z,96817.00
2019-05-11T03:27:53.460Z,96803.00
2019-05-11T03:30:25.705Z,96790.00
2019-05-11T03:32:58.002Z,96798.00
2019-05-11T03:35:29.662Z,96801.00
2019-05-11T03:38:01.425Z,96793.00
2019-05-11T03:40:33.249Z,96801.00
2019-05-11T03:43:04.683Z,96796.00
2019-05-11T03:45:36.235Z,96797.00
2019-05-11T03:48:09.324Z,96785.00
2019-05-11T03:50:40.914Z,96777.00
2019-05-11T03:53:12.496Z,96784.00
2019-05-11T03:55:44.050Z,96782.00
2019-05-11T03:58:15.589Z,96768.00
2019-05-11T04:00:50.286Z,96784.00
2019-05-11T04:03:21.821Z,96786.00
2019-05-11T04:05:53.316Z,96790.00
2019-05-11T04:08:24.929Z,96793.00
2019-05-11T04:10:56.464Z,96815.00
2019-05-11T04:13:27.899Z,96797.00
2019-05-11T04:15:59.676Z,96805.00
2019-05-11T04:18:31.209Z,96800.00
2019-05-11T04:21:02.823Z,96785.00
2019-05-11T04:23:34.303Z,96782.00
2019-05-11T04:26:05.753Z,96777.00
2019-05-11T04:28:37.232Z,96774.00
2019-05-11T04:31:08.868Z,96786.00
2019-05-11T04:33:40.298Z,96777.00
2019-05-11T04:36:12.750Z,96781.00
2019-05-11T04:38:44.203Z,96790.00
2019-05-11T04:41:15.812Z,96790.00
2019-05-11T04:43:47.638Z,96795.00
2019-05-11T04:46:19.182Z,96770.00
2019-05-11T04:48:50.629Z,96784.00
2019-05-11T04:51:22.281Z,96761.00
2019-05-11T04:54:18.869Z,96756.00
2019-05-11T04:57:20.967Z,96736.00
2019-05-11T04:59:55.723Z,96734.00
2019-05-11T05:02:27.448Z,96740.00
2019-05-11T05:04:58.999Z,96735.00
2019-05-11T05:07:30.478Z,96753.00
2019-05-11T05:10:01.932Z,96743.00
2019-05-11T05:12:33.486Z,96750.00
2019-05-11T05:15:05.285Z,96748.00
2019-05-11T05:17:36.776Z,96748.00
2019-05-11T05:20:08.509Z,96758.00
2019-05-11T05:22:39.930Z,96745.00
2019-05-11T05:25:13.368Z,96760.00
2019-05-11T05:27:44.773Z,96744.00
2019-05-11T05:30:16.614Z,96748.00
2019-05-11T05:32:48.066Z,96755.00
2019-05-11T05:35:19.543Z,96752.00
2019-05-11T05:37:51.096Z,96753.00
2019-05-11T05:40:22.500Z,96734.00
2019-05-11T05:42:53.985Z,96762.00
2019-05-11T05:45:25.384Z,96739.00
2019-05-11T05:47:56.789Z,96747.00
2019-05-11T05:50:28.340Z,96747.00
2019-05-11T05:52:59.821Z,96735.00
2019-05-11T05:55:31.304Z,96722.00
2019-05-11T05:58:02.756Z,96716.00
2019-05-11T06:00:34.176Z,96710.00
2019-05-11T06:03:05.666Z,96698.00
2019-05-11T06:05:37.096Z,96717.00
2019-05-11T06:08:09.533Z,96716.00
2019-05-11T06:10:41.004Z,96713.00
2019-05-11T06:13:12.418Z,96716.00
2019-05-11T06:15:43.855Z,96713.00
2019-05-11T06:18:15.329Z,96721.00
2019-05-11T06:20:46.998Z,96721.00
2019-05-11T06:23:18.470Z,96729.00
2019-05-11T06:25:49.930Z,96726.00
2019-05-11T06:28:21.421Z,96721.00
2019-05-11T06:30:52.870Z,96722.00
2019-05-11T06:33:24.292Z,96727.00
2019-05-11T06:35:55.775Z,96719.00
2019-05-11T06:38:27.212Z,96721.00
2019-05-11T06:40:58.686Z,96718.00
2019-05-11T06:43:36.412Z,96725.00
2019-05-11T06:46:07.878Z,96724.00
2019-05-11T06:48:39.206Z,96728.00
2019-05-11T06:51:10.708Z,96721.00
2019-05-11T06:53:42.143Z,96735.00
2019-05-11T06:56:13.536Z,96742.00
2019-05-11T06:58:45.592Z,96731.00
2019-05-11T07:01:19.444Z,96722.00
2019-05-11T07:03:50.843Z,96725.00
2019-05-11T07:06:26.062Z,96742.00
2019-05-11T07:08:55.529Z,96739.00
2019-05-11T07:11:26.949Z,96730.00
2019-05-11T07:13:58.343Z,96742.00
2019-05-11T07:16:29.721Z,96740.00
2019-05-11T07:19:01.325Z,96735.00
2019-05-11T07:21:32.857Z,96734.00
2019-05-11T07:24:04.201Z,96743.00
2019-05-11T07:26:35.592Z,96740.00
2019-05-11T07:29:06.940Z,96750.00
2019-05-11T07:31:38.395Z,96751.00
2019-05-11T07:34:09.769Z,96756.00
2019-05-11T07:36:41.239Z,96748.00
2019-05-11T07:39:12.599Z,96762.00
2019-05-11T07:41:44.010Z,96752.00
2019-05-11T07:44:15.388Z,96750.00
2019-05-11T07:46:48.309Z,96758.00
2019-05-11T07:49:23.210Z,96770.00
2019-05-11T07:51:55.586Z,96754.00
2019-05-11T07:54:28.085Z,96756.00
2019-05-11T07:56:59.774Z,96755.00
2019-05-11T07:59:31.363Z,96771.00
2019-05-11T08:02:02.765Z,96773.00
2019-05-11T08:04:34.146Z,96781.00
2019-05-11T08:07:07.634Z,96786.00
2019-05-11T08:09:39.057Z,96784.00
2019-05-11T08:12:10.583Z,96771.00
2019-05-11T08:14:56.598Z,96766.00
2019-05-11T08:17:15.340Z,96768.00
2019-05-11T08:19:47.652Z,96782.00
2019-05-11T08:22:22.718Z,96783.00
2019-05-11T08:24:52.158Z,96777.00
2019-05-11T08:27:23.539Z,96779.00
2019-05-11T08:29:54.975Z,96769.00
2019-05-11T08:32:28.476Z,96783.00
2019-05-11T08:34:59.519Z,96784.00
2019-05-11T08:37:30.964Z,96769.00
2019-05-11T08:40:02.320Z,96769.00
2019-05-11T08:42:33.699Z,96769.00
2019-05-11T08:45:19.421Z,96773.00
2019-05-11T08:47:38.571Z,96759.00
2019-05-11T08:50:10.621Z,96770.00
2019-05-11T08:52:42.063Z,96760.00
2019-05-11T08:55:13.917Z,96757.00
2019-05-11T08:57:47.800Z,96759.00
2019-05-11T09:00:21.253Z,96762.00
2019-05-11T09:02:52.778Z,96763.00
2019-05-11T09:05:24.213Z,96761.00
2019-05-11T09:07:57.772Z,96758.00
2019-05-11T09:10:28.800Z,96765.00
2019-05-11T09:13:00.211Z,96759.00
2019-05-11T09:15:36.811Z,96757.00
2019-05-11T09:18:04.763Z,96769.00
2019-05-11T09:20:37.858Z,96761.00
2019-05-11T09:23:09.445Z,96755.00
2019-05-11T09:25:40.930Z,96757.00
2019-05-11T09:28:12.402Z,96762.00
2019-05-11T09:30:43.782Z,96758.00
2019-05-11T09:33:20.001Z,96748.00
2019-05-11T09:35:53.077Z,96744.00
2019-05-11T09:38:21.378Z,96755.00
2019-05-11T09:40:52.796Z,96746.00
2019-05-11T09:43:24.226Z,96745.00
2019-05-11T09:45:58.070Z,96730.00
2019-05-11T09:48:28.766Z,96748.00
2019-05-11T09:51:00.268Z,96730.00
2019-05-11T09:53:31.660Z,96714.00
2019-05-11T09:56:03.184Z,96724.00
2019-05-11T09:58:34.729Z,96712.00
2019-05-11T10:01:08.638Z,96706.00
2019-05-11T10:03:39.255Z,96714.00
2019-05-11T10:06:10.618Z,96712.00
2019-05-11T10:08:42.084Z,96703.00
2019-05-11T10:11:13.444Z,96701.00
2019-05-11T10:13:44.874Z,96711.00
2019-05-11T10:16:17.907Z,96704.00
2019-05-11T10:18:50.530Z,96707.00
2019-05-11T10:21:21.987Z,96709.00
2019-05-11T10:23:53.400Z,96748.00
2019-05-11T10:26:24.989Z,96745.00
2019-05-11T10:28:58.484Z,96741.00
2019-05-11T10:31:33.897Z,96741.00
2019-05-11T10:34:08.605Z,96735.00
2019-05-11T10:36:40.238Z,96741.00
2019-05-11T10:39:11.728Z,96761.00
2019-05-11T10:41:43.096Z,96759.00
2019-05-11T10:44:14.532Z,96767.00
2019-05-11T10:46:48.206Z,96773.00
2019-05-11T10:49:19.084Z,96789.00
2019-05-11T10:51:50.507Z,96792.00
2019-05-11T10:54:21.928Z,96769.00
2019-05-11T10:56:53.373Z,96788.00
2019-05-11T10:59:24.854Z,96778.00
2019-05-11T11:01:58.780Z,96782.00
2019-05-11T11:04:29.527Z,96783.00
2019-05-11T11:07:00.917Z,96794.00
2019-05-11T11:09:32.343Z,96811.00
2019-05-11T11:12:03.756Z,96827.00
2019-05-11T11:14:35.175Z,96821.00
2019-05-11T11:17:08.726Z,96838.00
2019-05-11T11:19:40.271Z,96831.00
2019-05-11T11:22:35.072Z,96849.00
2019-05-11T11:24:48.181Z,96835.00
2019-05-11T11:27:20.397Z,96856.00
2019-05-11T11:29:52.202Z,96838.00
2019-05-11T11:32:23.953Z,96838.00
2019-05-11T11:34:57.798Z,96818.00
2019-05-11T11:37:29.898Z,96822.00
2019-05-11T11:40:01.673Z,96809.00
2019-05-11T11:42:33.722Z,96798.00
2019-05-11T11:45:08.027Z,96799.00
2019-05-11T11:47:40.005Z,96792.00
2019-05-11T11:50:12.811Z,96793.00
2019-05-11T11:52:47.585Z,96790.00
2019-05-11T11:55:19.066Z,96792.00
2019-05-11T11:57:51.862Z,96791.00
2019-05-11T12:00:23.715Z,96791.00
2019-05-11T12:02:55.331Z,96794.00
2019-05-11T12:05:28.265Z,96784.00
2019-05-11T12:08:55.387Z,96783.00
2019-05-11T12:11:28.874Z,96797.00
2019-05-11T12:14:04.520Z,96799.00
2019-05-11T12:16:41.342Z,96790.00
2019-05-11T12:19:18.563Z,96784.00
2019-05-11T12:21:51.558Z,96777.00
2019-05-11T12:24:33.350Z,96786.00
2019-05-11T12:27:07.533Z,96778.00
2019-05-11T12:29:38.659Z,96782.00
2019-05-11T12:32:32.588Z,96787.00
2019-05-11T12:35:12.297Z,96784.00
2019-05-11T12:37:48.467Z,96788.00
2019-05-11T12:40:20.794Z,96792.00
2019-05-11T12:42:52.627Z,96787.00
2019-05-11T12:45:25.545Z,96780.00
2019-05-11T12:48:01.873Z,96777.00
2019-05-11T12:50:33.557Z,96791.00
2019-05-11T12:53:08.047Z,96795.00
2019-05-11T12:55:39.651Z,96796.00
2019-05-11T12:58:11.181Z,96800.00
2019-05-11T13:00:47.982Z,96801.00
2019-05-11T13:03:21.901Z,96802.00
2019-05-11T13:05:58.400Z,96812.00
2019-05-11T13:08:33.267Z,96801.00
2019-05-11T13:11:12.094Z,96812.00
2019-05-11T13:13:44.059Z,96795.00
2019-05-11T13:16:18.571Z,96807.00
2019-05-11T13:18:51.761Z,96821.00
2019-05-11T13:21:23.321Z,96818.00
2019-05-11T13:23:57.553Z,96836.00
2019-05-11T13:26:30.209Z,96829.00
2019-05-11T13:29:01.888Z,96819.00
2019-05-11T13:31:38.421Z,96815.00
2019-05-11T13:34:11.052Z,96817.00
2019-05-11T13:36:44.846Z,96818.00
2019-05-11T13:39:43.134Z,96808.00
2019-05-11T13:42:14.846Z,96809.00
2019-05-11T13:44:47.886Z,96806.00
2019-05-11T13:47:19.316Z,96785.00
2019-05-11T13:49:51.010Z,96786.00
2019-05-11T13:52:23.141Z,96784.00
2019-05-11T13:54:58.319Z,96778.00
2019-05-11T13:57:29.654Z,96783.00
2019-05-11T14:00:03.281Z,96781.00
2019-05-11T14:02:58.628Z,96813.00
2019-05-11T14:05:30.675Z,96812.00
2019-05-11T14:08:02.568Z,96823.00
2019-05-11T14:10:34.708Z,96807.00
2019-05-11T14:13:08.581Z,96807.00
2019-05-11T14:15:40.185Z,96821.00
2019-05-11T14:18:12.862Z,96824.00
2019-05-11T14:20:44.899Z,96828.00
2019-05-11T14:23:18.247Z,96838.00
2019-05-11T14:25:50.466Z,96854.00
2019-05-11T14:28:23.824Z,96862.00
2019-05-11T14:31:04.684Z,96854.00
2019-05-11T14:33:40.162Z,96863.00
2019-05-11T14:36:12.394Z,96864.00
2019-05-11T14:38:44.446Z,96881.00
2019-05-11T14:41:18.213Z,96890.00
2019-05-11T14:43:50.587Z,96893.00
2019-05-11T14:46:22.362Z,96893.00
2019-05-11T14:48:54.290Z,96881.00
2019-05-11T14:51:28.255Z,96887.00
2019-05-11T14:54:00.262Z,96888.00
2019-05-11T14:56:32.317Z,96893.00
2019-05-11T14:59:04.204Z,96892.00
2019-05-11T15:01:38.226Z,96899.00
2019-05-11T15:04:10.115Z,96902.00
2019-05-11T15:06:45.154Z,96925.00
2019-05-11T15:09:18.317Z,96930.00
2019-05-11T15:11:52.543Z,96937.00
2019-05-11T15:14:22.878Z,96940.00
2019-05-11T15:16:57.519Z,96957.00
2019-05-11T15:19:29.079Z,96955.00
2019-05-11T15:22:02.315Z,96966.00
2019-05-11T15:24:38.457Z,96957.00
2019-05-11T15:27:12.801Z,96965.00
2019-05-11T15:29:44.802Z,96959.00
2019-05-11T15:32:17.920Z,96969.00
2019-05-11T15:34:49.942Z,96975.00
2019-05-11T15:37:22.268Z,96986.00
2019-05-11T15:39:58.949Z,97006.00
2019-05-11T15:42:31.118Z,97010.00
2019-05-11T15:45:10.659Z,96988.00
2019-05-11T15:47:42.866Z,97002.00
2019-05-11T15:50:18.689Z,97018.00
2019-05-11T15:52:49.707Z,97015.00
2019-05-11T15:55:24.842Z,97026.00
2019-05-11T15:58:21.482Z,97020.00
2019-05-11T16:00:55.162Z,97028.00
2019-05-11T16:03:27.581Z,97035.00
2019-05-11T16:05:59.340Z,97042.00
2019-05-11T16:08:31.363Z,97048.00
2019-05-11T16:11:03.303Z,97044.00
2019-05-11T16:13:37.722Z,97048.00
2019-05-11T16:16:14.519Z,97061.00
2019-05-11T16:18:48.336Z,97070.00
2019-05-11T16:21:19.324Z,97071.00
2019-05-11T16:23:50.722Z,97083.00
2019-05-11T16:26:22.051Z,97096.00
2019-05-11T16:28:53.579Z,97089.00
2019-05-11T16:31:24.965Z,97097.00
2019-05-11T16:33:58.760Z,97109.00
2019-05-11T16:36:29.571Z,97109.00
2019-05-11T16:39:10.107Z,97111.00
2019-05-11T16:41:39.251Z,97109.00
2019-05-11T16:44:11.471Z,97105.00
2019-05-11T16:46:43.759Z,97118.00
2019-05-11T16:49:27.934Z,97116.00
2019-05-11T16:51:48.344Z,97105.00
2019-05-11T16:54:19.944Z,97127.00
2019-05-11T16:56:52.461Z,97108.00
2019-05-11T16:59:23.995Z,97112.00
2019-05-11T17:01:55.476Z,97126.00
2019-05-11T17:04:31.034Z,97125.00
2019-05-11T17:07:03.074Z,97114.00
2019-05-11T17:09:34.513Z,97107.00
2019-05-11T17:12:05.928Z,97127.00
2019-05-11T17:14:54.126Z,97120.00
2019-05-11T17:17:27.733Z,97117.00
2019-05-11T17:20:00.289Z,97108.00
2019-05-11T17:22:31.733Z,97117.00
2019-05-11T17:25:03.137Z,97125.00
2019-05-11T17:27:34.526Z,97130.00
2019-05-11T17:30:10.089Z,97142.00
2019-05-11T17:32:41.563Z,97146.00
2019-05-11T17:35:12.975Z,97150.00
2019-05-11T17:37:44.357Z,97156.00
2019-05-11T17:40:20.744Z,97159.00
2019-05-11T17:42:53.639Z,97157.00
2019-05-11T17:45:23.201Z,97151.00
2019-05-11T17:47:54.632Z,97159.00
2019-05-11T17:50:28.166Z,97150.00
2019-05-11T17:52:59.787Z,97157.00
2019-05-11T17:55:31.394Z,97165.00
2019-05-11T17:58:02.886Z,97160.00
2019-05-11T18:00:34.350Z,97176.00
2019-05-11T18:03:08.354Z,97169.00
2019-05-11T18:05:43.540Z,97178.00
2019-05-11T18:08:14.934Z,97179.00
2019-05-11T18:10:47.954Z,97191.00
2019-05-11T18:13:19.370Z,97196.00
2019-05-11T18:15:50.782Z,97207.00
2019-05-11T18:18:24.170Z,97216.00
2019-05-11T18:20:57.922Z,97204.00
2019-05-11T18:23:30.340Z,97202.00
2019-05-11T18:26:01.901Z,97222.00
2019-05-11T18:28:33.297Z,97217.00
2019-05-11T18:31:04.714Z,97227.00
2019-05-11T18:33:38.142Z,97234.00
2019-05-11T18:36:09.258Z,97231.00
2019-05-11T18:38:40.663Z,97238.00
2019-05-11T18:41:12.014Z,97247.00
2019-05-11T18:43:43.428Z,97244.00
2019-05-11T18:46:14.776Z,97254.00
2019-05-11T18:48:48.504Z,97269.00
2019-05-11T18:51:19.279Z,97277.00
2019-05-11T18:53:50.712Z,97270.00
2019-05-11T18:56:22.109Z,97273.00
2019-05-11T18:58:53.490Z,97278.00
2019-05-11T19:01:24.972Z,97276.00
2019-05-11T19:04:14.941Z,97287.00
2019-05-11T19:07:31.101Z,97302.00
2019-05-11T19:10:09.493Z,97295.00
2019-05-11T19:12:43.743Z,97303.00
2019-05-11T19:15:15.183Z,97310.00
2019-05-11T19:17:48.899Z,97306.00
2019-05-11T19:20:19.826Z,97308.00
2019-05-11T19:22:51.262Z,97316.00
2019-05-11T19:25:22.682Z,97325.00
2019-05-11T19:27:54.136Z,97319.00
2019-05-11T19:30:27.610Z,97337.00
2019-05-11T19:32:59.099Z,97338.00
2019-05-11T19:35:30.431Z,97326.00
2019-05-11T19:38:01.816Z,97330.00
2019-05-11T19:40:33.296Z,97315.00
2019-05-11T19:43:04.730Z,97330.00
2019-05-11T19:45:38.427Z,97335.00
2019-05-11T19:48:09.477Z,97337.00
2019-05-11T19:50:41.204Z,97337.00
2019-05-11T19:53:12.562Z,97342.00
2019-05-11T19:55:43.981Z,97354.00
2019-05-11T19:58:15.422Z,97345.00
2019-05-11T20:00:48.822Z,97353.00
2019-05-11T20:03:19.908Z,97351.00
2019-05-11T20:05:51.355Z,97348.00
2019-05-11T20:08:22.759Z,97355.00
2019-05-11T20:10:54.154Z,97353.00
2019-05-11T20:13:25.546Z,97376.00
2019-05-11T20:15:57.818Z,97373.00
2019-05-11T20:18:29.292Z,97389.00
2019-05-11T20:21:14.285Z,97387.00
2019-05-11T20:23:33.876Z,97386.00
2019-05-11T20:26:05.302Z,97406.00
2019-05-11T20:28:37.818Z,97397.00
2019-05-11T20:31:09.371Z,97402.00
2019-05-11T20:33:41.847Z,97411.00
2019-05-11T20:36:13.282Z,97406.00
2019-05-11T20:38:44.744Z,97424.00
2019-05-11T20:41:16.175Z,97419.00
2019-05-11T20:43:47.892Z,97415.00
2019-05-11T20:46:19.334Z,97427.00
2019-05-11T20:48:50.733Z,97425.00
2019-05-11T20:51:33.377Z,97418.00
2019-05-11T20:53:55.303Z,97417.00
2019-05-11T20:56:28.430Z,97426.00
2019-05-11T20:59:00.014Z,97423.00
2019-05-11T21:01:31.531Z,97418.00
2019-05-11T21:04:03.025Z,97438.00
2019-05-11T21:06:34.467Z,97431.00
2019-05-11T21:09:07.850Z,97441.00
2019-05-11T21:11:39.226Z,97441.00
2019-05-11T21:14:10.602Z,97448.00
2019-05-11T21:16:42.039Z,97446.00
2019-05-11T21:19:13.589Z,97454.00
2019-05-11T21:21:49.847Z,97465.00
2019-05-11T21:24:18.747Z,97455.00
2019-05-11T21:26:50.273Z,97466.00
2019-05-11T21:29:21.640Z,97458.00
2019-05-11T21:31:59.365Z,97458.00
2019-05-11T21:34:30.778Z,97474.00
2019-05-11T21:37:02.185Z,97463.00
2019-05-11T21:39:33.508Z,97470.00
2019-05-11T21:42:05.051Z,97483.00
2019-05-11T21:44:36.513Z,97480.00
2019-05-11T21:47:07.878Z,97477.00
2019-05-11T21:49:39.468Z,97496.00
2019-05-11T21:52:10.868Z,97495.00
2019-05-11T21:54:42.246Z,97510.00
2019-05-11T21:57:13.662Z,97501.00
2019-05-11T21:59:45.100Z,97521.00
2019-05-11T22:02:18.495Z,97514.00
2019-05-11T22:04:49.624Z,97539.00
2019-05-11T22:07:23.268Z,97549.00
2019-05-11T22:09:54.829Z,97548.00
2019-05-11T22:12:27.947Z,97568.00
2019-05-11T22:14:59.358Z,97578.00
2019-05-11T22:17:30.941Z,97564.00
2019-05-11T22:20:02.362Z,97577.00
2019-05-11T22:22:33.780Z,97585.00
2019-05-11T22:25:07.725Z,97581.00
2019-05-11T22:27:39.134Z,97602.00
2019-05-11T22:30:11.530Z,97611.00
2019-05-11T22:32:42.926Z,97598.00
2019-05-11T22:35:14.397Z,97616.00
2019-05-11T22:37:49.155Z,97623.00
2019-05-11T22:40:20.566Z,97636.00
2019-05-11T22:42:51.917Z,97650.00
2019-05-11T22:45:23.297Z,97660.00
2019-05-11T22:47:54.721Z,97647.00
2019-05-11T22:50:28.847Z,97635.00
2019-05-11T22:52:59.207Z,97648.00
2019-05-11T22:55:30.584Z,97633.00
2019-05-11T22:58:01.951Z,97648.00
2019-05-11T23:00:44.693Z,97658.00
2019-05-11T23:03:18.636Z,97669.00
2019-05-11T23:05:49.883Z,97668.00
2019-05-11T23:08:21.284Z,97669.00
2019-05-11T23:10:52.664Z,97679.00
2019-05-11T23:13:24.022Z,97689.00
2019-05-11T23:15:55.402Z,97687.00
2019-05-11T23:18:28.554Z,97693.00
2019-05-11T23:20:59.844Z,97688.00
2019-05-11T23:23:33.592Z,97685.00
2019-05-11T23:26:04.923Z,97683.00
2019-05-11T23:28:37.871Z,97692.00
2019-05-11T23:31:09.300Z,97688.00
2019-05-11T23:33:40.649Z,97702.00
2019-05-11T23:36:12.009Z,97706.00
2019-05-11T23:38:43.437Z,97698.00
2019-05-11T23:41:24.385Z,97706.00
2019-05-11T23:43:47.920Z,97709.00
2019-05-11T23:46:19.273Z,97719.00
2019-05-11T23:48:50.639Z,97711.00
2019-05-11T23:51:22.018Z,97712.00
2019-05-11T23:53:53.350Z,97736.00
2019-05-11T23:56:24.788Z,97735.00
2019-05-11T23:58:57.906Z,97721.00
